Time;durP1;ratioP1;P1;durP2;ratioP2;P2;SDS_P1;SDS_P2;PMS_P1;PMS_P2;Temp;Humidity;BMP_temperature;BMP_pressure;BME280_temperature;BME280_humidity;BME280_pressure;Samples;Min_cycle;Max_cycle;Signal;HPM_P1;HPM_P2
2023/04/16 00:00:36;;;;;;;8.20;2.57;;;;;;;-141.97;48.55;47730.50;5031742;28;20166;-83
2023/04/16 00:03:01;;;;;;;5.60;2.30;;;;;;;-141.97;48.42;47653.63;5043245;28;20554;-83
2023/04/16 00:05:27;;;;;;;6.23;2.40;;;;;;;-141.97;48.47;47603.66;5038472;28;20193;-83
2023/04/16 00:07:52;;;;;;;5.70;3.23;;;;;;;-141.97;48.67;47755.50;5029958;28;20178;-83
2023/04/16 00:10:17;;;;;;;7.30;2.80;;;;;;;-141.97;48.69;47599.81;5031427;28;20170;-83
2023/04/16 00:12:43;;;;;;;4.67;2.43;;;;;;;-141.97;48.65;47611.34;5030099;28;20198;-83
2023/04/16 00:15:09;;;;;;;4.60;2.50;;;;;;;-141.97;48.62;47619.03;5030735;28;20749;-84
2023/04/16 00:17:34;;;;;;;5.57;2.80;;;;;;;-141.97;48.93;47640.16;5030352;28;20646;-83
2023/04/16 00:20:00;;;;;;;6.33;2.47;;;;;;;-141.97;49.03;47588.28;5029781;28;20233;-83
2023/04/16 00:22:25;;;;;;;6.30;2.63;;;;;;;-141.97;48.95;47580.59;5030987;28;20598;-83
2023/04/16 00:24:51;;;;;;;5.23;2.40;;;;;;;-141.97;48.84;47738.19;5030057;28;20185;-82
2023/04/16 00:27:18;;;;;;;6.70;2.77;;;;;;;-141.97;48.96;47703.59;5030404;28;20166;-83
2023/04/16 00:29:43;;;;;;;5.83;2.70;;;;;;;-141.97;48.82;47624.78;5029364;28;20205;-83
2023/04/16 00:32:09;;;;;;;6.20;2.93;;;;;;;-141.97;48.92;47707.44;5030691;28;20278;-83
2023/04/16 00:34:34;;;;;;;6.30;2.93;;;;;;;-141.97;48.68;47715.13;5045543;28;20177;-81
2023/04/16 00:37:00;;;;;;;9.40;3.70;;;;;;;-141.97;48.79;47597.88;5044299;28;20176;-80
2023/04/16 00:39:25;;;;;;;8.57;3.93;;;;;;;-141.97;48.40;47436.44;5033684;28;20225;-82
2023/04/16 00:41:51;;;;;;;9.33;3.47;;;;;;;-141.97;49.01;47584.44;5035268;28;20172;-82
2023/04/16 00:44:16;;;;;;;7.50;3.13;;;;;;;-141.97;51.09;47703.59;5032196;28;20561;-82
2023/04/16 00:46:42;;;;;;;10.17;3.50;;;;;;;-141.97;52.17;47582.50;5031159;28;20171;-83
2023/04/16 00:49:09;;;;;;;8.43;3.53;;;;;;;-141.97;51.94;47632.47;5031161;28;20162;-83
2023/04/16 00:51:34;;;;;;;5.93;3.00;;;;;;;-141.97;51.40;47638.25;5031724;28;20208;-83
2023/04/16 00:54:00;;;;;;;6.83;3.17;;;;;;;-141.97;51.36;47509.47;5031606;28;20202;-82
2023/04/16 00:56:27;;;;;;;6.00;3.33;;;;;;;-141.97;51.59;47757.41;5034084;28;20614;-83
2023/04/16 00:58:54;;;;;;;6.47;3.07;;;;;;;-141.97;51.79;47544.06;5034783;28;20162;-83
2023/04/16 01:01:19;;;;;;;6.97;3.27;;;;;;;-141.97;52.60;47674.78;5033447;28;20646;-82
2023/04/16 01:03:46;;;;;;;7.57;3.30;;;;;;;-141.97;52.29;47570.97;5034844;28;20186;-83
2023/04/16 01:06:13;;;;;;;8.47;3.77;;;;;;;-141.97;52.50;47601.72;5035036;28;20626;-82
2023/04/16 01:08:39;;;;;;;7.67;3.40;;;;;;;-141.97;52.43;47699.75;5034592;28;20213;-82
2023/04/16 01:11:04;;;;;;;6.53;3.03;;;;;;;-141.97;53.15;47584.44;5034693;28;20162;-82
2023/04/16 01:13:30;;;;;;;8.93;3.20;;;;;;;-141.97;53.72;47607.50;5034815;28;20201;-82
2023/04/16 01:15:56;;;;;;;7.17;3.53;;;;;;;-141.97;54.31;47638.25;5034615;28;20661;-82
2023/04/16 01:18:22;;;;;;;5.67;3.67;;;;;;;-141.97;54.66;47630.56;5034219;28;20170;-83
2023/04/16 01:20:49;;;;;;;12.30;4.10;;;;;;;-141.97;55.17;47622.88;5033879;28;20322;-82
2023/04/16 01:23:17;;;;;;;8.57;4.33;;;;;;;-141.97;55.76;47624.78;5033079;28;20182;-84
2023/04/16 01:25:43;;;;;;;8.87;4.60;;;;;;;-141.97;57.72;47546.00;5034163;28;20189;-82
2023/04/16 01:28:08;;;;;;;7.50;3.80;;;;;;;-141.97;58.58;47722.81;5034234;28;20271;-83
2023/04/16 01:30:34;;;;;;;7.93;4.13;;;;;;;-141.97;58.98;47665.16;5033715;28;20180;-83
2023/04/16 01:33:00;;;;;;;10.77;4.10;;;;;;;-141.97;58.93;47649.78;5033994;28;20612;-82
2023/04/16 01:35:25;;;;;;;8.60;3.90;;;;;;;-141.97;59.40;47546.00;5033911;28;20180;-82
2023/04/16 01:37:51;;;;;;;8.87;4.00;;;;;;;-141.97;59.40;47588.28;5034187;28;20167;-83
2023/04/16 01:40:17;;;;;;;9.57;4.57;;;;;;;-141.97;58.82;47469.09;5033581;28;20189;-82
2023/04/16 01:42:43;;;;;;;7.63;4.10;;;;;;;-141.97;59.11;47503.69;5033854;28;20714;-82
2023/04/16 01:45:09;;;;;;;7.17;3.83;;;;;;;-141.97;58.67;47546.00;5033526;28;20252;-83
2023/04/16 01:47:35;;;;;;;7.77;4.13;;;;;;;-141.97;58.78;47630.56;5033669;28;20181;-82
2023/04/16 01:50:02;;;;;;;8.03;3.70;;;;;;;-141.97;58.54;47584.44;5033874;28;20525;-83
2023/04/16 01:52:27;;;;;;;8.47;3.57;;;;;;;-141.97;58.04;47730.50;5033678;28;20619;-83
2023/04/16 01:54:53;;;;;;;10.03;3.70;;;;;;;-141.97;57.93;47745.88;5033382;28;20194;-82
2023/04/16 01:57:18;;;;;;;11.30;3.83;;;;;;;-141.97;57.38;47713.22;5033663;28;20244;-82
2023/04/16 01:59:43;;;;;;;8.27;3.33;;;;;;;-141.97;56.95;47722.81;5033590;28;20204;-83
2023/04/16 02:02:10;;;;;;;7.53;3.20;;;;;;;-141.97;56.64;47688.22;5033354;28;20177;-82
2023/04/16 02:04:40;;;;;;;8.40;3.50;;;;;;;-141.97;56.28;47707.44;5033918;28;20585;-82
2023/04/16 02:07:06;;;;;;;6.60;3.37;;;;;;;-141.97;56.31;47630.56;5042338;28;20177;-83
2023/04/16 02:09:36;;;;;;;8.30;3.30;;;;;;;-141.97;56.80;47649.78;5036004;28;20174;-83
2023/04/16 02:12:02;;;;;;;8.07;4.07;;;;;;;-141.97;57.40;47634.41;5033314;28;20185;-83
2023/04/16 02:14:28;;;;;;;11.67;4.53;;;;;;;-141.97;57.34;47636.31;5033453;28;20162;-83
2023/04/16 02:16:54;;;;;;;13.53;6.50;;;;;;;-141.97;57.43;47628.63;5033685;28;20162;-83
2023/04/16 02:19:19;;;;;;;15.20;7.43;;;;;;;-141.97;58.27;47630.56;5032737;28;20225;-83
2023/04/16 02:21:45;;;;;;;12.53;7.10;;;;;;;-141.97;59.34;47676.69;5032990;28;20618;-83
2023/04/16 02:24:10;;;;;;;13.80;6.63;;;;;;;-141.97;59.58;47603.66;5031861;28;20170;-83
2023/04/16 02:26:35;;;;;;;11.73;5.93;;;;;;;-141.97;60.79;47626.72;5033204;28;20228;-83
2023/04/16 02:29:01;;;;;;;11.90;5.30;;;;;;;-141.97;60.61;47592.13;5033047;28;20622;-83
2023/04/16 02:31:27;;;;;;;8.43;3.90;;;;;;;-141.97;60.09;47601.72;5033015;28;20178;-82
2023/04/16 02:33:53;;;;;;;8.23;4.13;;;;;;;-141.97;60.02;47603.66;5031301;28;20212;-83
2023/04/16 02:36:18;;;;;;;7.67;3.83;;;;;;;-141.97;60.05;47653.63;5034811;28;20190;-82
2023/04/16 02:38:44;;;;;;;9.03;4.10;;;;;;;-141.97;60.50;47663.22;5035955;28;20649;-82
2023/04/16 02:41:09;;;;;;;10.57;4.53;;;;;;;-141.97;62.08;47634.41;5037649;28;20549;-81
2023/04/16 02:43:35;;;;;;;10.67;4.50;;;;;;;-141.97;63.26;47584.44;5035483;28;20181;-83
2023/04/16 02:46:00;;;;;;;7.73;4.07;;;;;;;-141.97;64.51;47622.88;5032784;28;20239;-83
2023/04/16 02:48:25;;;;;;;9.50;4.37;;;;;;;-141.97;66.09;47559.44;5033017;28;20174;-82
2023/04/16 02:50:51;;;;;;;12.43;5.70;;;;;;;-141.97;66.94;47613.25;5032691;28;20209;-82
2023/04/16 02:53:16;;;;;;;10.27;5.43;;;;;;;-141.97;66.44;47586.34;5038365;28;20275;-81
2023/04/16 02:55:51;;;;;;;14.60;5.97;;;;;;;-141.97;66.19;47617.09;5042555;28;20614;-83
2023/04/16 02:58:16;;;;;;;11.07;6.00;;;;;;;-141.97;65.79;47663.22;5032715;28;20176;-82
2023/04/16 03:00:42;;;;;;;10.60;6.47;;;;;;;-141.97;65.15;47553.69;5032395;28;20162;-83
2023/04/16 03:03:07;;;;;;;13.17;6.47;;;;;;;-141.97;64.57;47657.47;5032698;28;20202;-83
2023/04/16 03:05:32;;;;;;;13.50;7.23;;;;;;;-141.97;64.84;47640.16;5032032;28;20170;-83
2023/04/16 03:07:58;;;;;;;16.87;8.47;;;;;;;-141.97;66.30;47795.88;5031322;28;20166;-83
2023/04/16 03:10:23;;;;;;;22.47;11.70;;;;;;;-141.97;66.71;47570.97;5031727;28;20539;-83
2023/04/16 03:12:49;;;;;;;23.37;11.70;;;;;;;-141.97;66.45;47690.16;5031880;28;20193;-83
2023/04/16 03:15:14;;;;;;;22.67;12.23;;;;;;;-141.97;66.33;47659.38;5034600;28;20622;-84
2023/04/16 03:17:40;;;;;;;20.40;9.97;;;;;;;-141.97;66.25;47768.94;5031914;28;20181;-84
2023/04/16 03:20:06;;;;;;;17.30;8.87;;;;;;;-141.97;65.91;47599.81;5029081;28;20217;-83
2023/04/16 03:22:31;;;;;;;14.43;7.77;;;;;;;-141.97;65.53;47647.84;5031065;28;20174;-84
2023/04/16 03:24:57;;;;;;;17.63;7.80;;;;;;;-141.97;66.31;47626.72;5030861;28;20208;-83
2023/04/16 03:27:22;;;;;;;14.80;5.93;;;;;;;-141.97;66.08;47630.56;5049434;28;20208;-81
2023/04/16 03:29:48;;;;;;;14.47;6.23;;;;;;;-141.97;65.82;47620.94;5054605;28;20638;-84
2023/04/16 03:32:13;;;;;;;13.77;6.33;;;;;;;-141.97;65.53;47601.72;5034263;28;20244;-83
2023/04/16 03:34:39;;;;;;;27.43;12.57;;;;;;;-141.97;65.47;47586.34;5021750;28;20189;-83
2023/04/16 03:37:05;;;;;;;29.50;13.93;;;;;;;-141.97;65.23;47620.94;5031164;28;20174;-81
2023/04/16 03:39:31;;;;;;;27.33;12.33;;;;;;;-141.97;64.86;47615.19;5031572;28;20622;-82
2023/04/16 03:41:56;;;;;;;19.90;9.40;;;;;;;-141.97;65.45;47659.38;5030560;28;20595;-82
2023/04/16 03:44:27;;;;;;;15.93;8.20;;;;;;;-141.97;66.08;47503.69;5030763;28;20200;-83
2023/04/16 03:46:56;;;;;;;18.87;9.37;;;;;;;-141.97;65.79;47684.38;5029857;28;20170;-83
2023/04/16 03:49:21;;;;;;;30.47;14.93;;;;;;;-141.97;65.33;47682.47;5030885;28;20308;-82
2023/04/16 03:51:47;;;;;;;17.13;9.50;;;;;;;-141.97;64.97;47626.72;5029203;28;20166;-82
2023/04/16 03:54:12;;;;;;;11.77;6.90;;;;;;;-141.97;65.19;47484.47;5029384;28;20213;-83
2023/04/16 03:56:41;;;;;;;11.47;6.20;;;;;;;-141.97;65.06;47728.59;5030634;28;20174;-83
2023/04/16 03:59:06;;;;;;;11.50;5.80;;;;;;;-141.97;64.89;47569.06;5030970;28;20174;-83
2023/04/16 04:01:32;;;;;;;12.53;6.27;;;;;;;-141.97;64.81;47642.09;5030942;28;20184;-82
2023/04/16 04:03:57;;;;;;;13.70;6.87;;;;;;;-141.97;65.29;47617.09;5030409;28;20220;-82
2023/04/16 04:06:23;;;;;;;15.00;7.50;;;;;;;-141.97;65.44;47622.88;5029379;28;20579;-82
2023/04/16 04:08:48;;;;;;;14.73;7.30;;;;;;;-141.97;65.59;47569.06;5030799;28;20216;-82
2023/04/16 04:11:14;;;;;;;13.47;7.20;;;;;;;-141.97;65.18;47522.91;5031150;28;20551;-82
2023/04/16 04:13:39;;;;;;;12.40;7.63;;;;;;;-141.97;65.20;47601.72;5031114;28;20283;-83
2023/04/16 04:16:05;;;;;;;15.37;7.80;;;;;;;-141.97;64.97;47561.38;5030617;28;20649;-82
2023/04/16 04:18:30;;;;;;;15.67;7.93;;;;;;;-141.97;64.61;47742.03;5031043;28;20178;-82
2023/04/16 04:20:56;;;;;;;17.37;8.50;;;;;;;-141.97;64.57;47634.41;5030139;28;20240;-83
2023/04/16 04:23:22;;;;;;;21.27;8.50;;;;;;;-141.97;63.97;47634.41;5031240;28;20170;-82
2023/04/16 04:25:48;;;;;;;16.37;9.00;;;;;;;-141.97;63.71;47653.63;5030425;28;20233;-82
2023/04/16 04:28:13;;;;;;;19.30;10.00;;;;;;;-141.97;63.21;47615.19;5030305;28;20166;-81
2023/04/16 04:30:38;;;;;;;17.23;9.27;;;;;;;-141.97;63.41;47590.19;5029965;28;20173;-80
2023/04/16 04:33:04;;;;;;;18.97;10.80;;;;;;;-141.97;64.34;47640.16;5030222;28;20204;-81
2023/04/16 04:35:30;;;;;;;24.17;14.20;;;;;;;-141.97;64.56;47647.84;5027813;28;20224;-81
2023/04/16 04:37:55;;;;;;;33.30;17.50;;;;;;;-141.97;64.31;47634.41;5030438;28;20170;-82
2023/04/16 04:40:20;;;;;;;24.97;12.13;;;;;;;-141.97;63.46;47642.09;5030188;28;20170;-82
2023/04/16 04:42:46;;;;;;;15.43;9.20;;;;;;;-141.97;63.04;47611.34;5030531;28;20170;-82
2023/04/16 04:45:11;;;;;;;25.43;15.03;;;;;;;-141.97;62.88;47644.00;5030325;28;20564;-82
2023/04/16 04:47:37;;;;;;;29.30;16.20;;;;;;;-141.97;62.64;47611.34;5037087;28;20205;-81
2023/04/16 04:50:02;;;;;;;32.47;18.33;;;;;;;-141.97;62.35;47595.97;5032226;28;20261;-82
2023/04/16 04:52:28;;;;;;;32.27;16.53;;;;;;;-141.97;62.16;47649.78;5030358;28;20571;-82
2023/04/16 04:54:53;;;;;;;25.80;13.70;;;;;;;-141.97;63.24;47636.31;5030088;28;20630;-82
2023/04/16 04:57:18;;;;;;;19.67;10.50;;;;;;;-141.97;63.73;47636.31;5030021;28;20178;-82
2023/04/16 04:59:44;;;;;;;19.37;10.50;;;;;;;-141.97;63.76;47605.56;5029941;28;20526;-81
2023/04/16 05:02:10;;;;;;;21.17;11.87;;;;;;;-141.97;63.56;47619.03;5027539;28;20159;-82
2023/04/16 05:04:35;;;;;;;28.30;14.97;;;;;;;-141.97;63.39;47636.31;5028817;28;20182;-81
2023/04/16 05:07:01;;;;;;;31.57;17.30;;;;;;;-141.97;63.38;47672.84;5029745;28;20177;-81
2023/04/16 05:09:26;;;;;;;28.33;15.83;;;;;;;-141.97;63.13;47661.31;5028459;28;20185;-81
2023/04/16 05:11:52;;;;;;;32.30;16.20;;;;;;;-141.97;63.29;47699.75;5029582;28;20590;-83
2023/04/16 05:14:18;;;;;;;23.40;11.70;;;;;;;-141.97;63.03;47628.63;5030108;28;20170;-81
2023/04/16 05:16:43;;;;;;;18.87;10.50;;;;;;;-141.97;62.22;47592.13;5028063;28;20182;-81
2023/04/16 05:19:09;;;;;;;17.67;9.80;;;;;;;-141.97;62.55;47582.50;5029938;28;20225;-81
2023/04/16 05:21:34;;;;;;;16.60;10.03;;;;;;;-141.97;62.72;47647.84;5032868;28;20193;-79
2023/04/16 05:24:00;;;;;;;17.30;10.13;;;;;;;-141.97;62.88;47611.34;5032474;28;20185;-82
2023/04/16 05:26:25;;;;;;;16.77;10.50;;;;;;;-141.97;62.30;47638.25;5029501;28;20166;-81
2023/04/16 05:28:50;;;;;;;30.20;16.77;;;;;;;-141.97;61.94;47619.03;5030621;28;20240;-81
2023/04/16 05:31:16;;;;;;;26.30;14.40;;;;;;;-141.97;61.59;47628.63;5030016;28;20189;-82
2023/04/16 05:33:41;;;;;;;20.00;11.50;;;;;;;-141.97;61.64;47586.34;5029916;28;20248;-80
2023/04/16 05:36:06;;;;;;;58.27;20.83;;;;;;;-141.97;61.14;47653.63;5029860;28;20163;-79
2023/04/16 05:38:32;;;;;;;32.70;14.27;;;;;;;-141.97;60.32;47745.88;5010662;28;20263;-81
2023/04/16 05:40:58;;;;;;;72.47;25.87;;;;;;;-141.97;58.82;47636.31;5011970;28;20175;-81
2023/04/16 05:43:23;;;;;;;33.87;15.00;;;;;;;-141.97;57.77;47619.03;5018675;28;20206;-81
2023/04/16 05:45:48;;;;;;;20.07;10.50;;;;;;;-141.97;56.36;47624.78;5028609;28;20232;-81
2023/04/16 05:48:14;;;;;;;17.17;8.83;;;;;;;-141.97;56.36;47761.25;5033213;28;20630;-81
2023/04/16 05:50:39;;;;;;;16.13;9.20;;;;;;;-141.97;55.15;47638.25;5033018;28;20170;-81
2023/04/16 05:53:06;;;;;;;14.10;8.63;;;;;;;-141.97;54.78;47549.84;5034170;28;20201;-80
2023/04/16 05:55:32;;;;;;;14.97;8.10;;;;;;;-141.97;52.91;47595.97;5033227;28;20193;-80
2023/04/16 05:57:58;;;;;;;15.67;8.57;;;;;;;-141.97;52.86;47749.72;5032839;28;20178;-80
2023/04/16 06:00:23;;;;;;;21.40;11.77;;;;;;;-141.97;52.24;47661.31;5048483;28;20170;-82
2023/04/16 06:02:49;;;;;;;19.20;8.93;;;;;;;-141.97;50.51;47592.13;5048005;28;20183;-81
2023/04/16 06:05:15;;;;;;;14.07;6.47;;;;;;;-141.97;50.38;47588.28;5032234;28;20181;-81
2023/04/16 06:07:41;;;;;;;13.67;7.20;;;;;;;-141.97;49.31;47594.03;5032479;28;20170;-81
2023/04/16 06:10:07;;;;;;;9.57;4.30;;;;;;;-141.97;48.05;47574.81;5032947;28;20721;-81
2023/04/16 06:12:33;;;;;;;7.20;3.80;;;;;;;-141.97;49.86;47444.13;5033092;28;20198;-81
2023/04/16 06:15:00;;;;;;;8.93;4.60;;;;;;;-141.97;49.10;47538.28;5033107;28;20224;-80
2023/04/16 06:17:26;;;;;;;11.43;4.80;;;;;;;-141.97;48.77;47601.72;5024378;28;20175;-80
2023/04/16 06:19:51;;;;;;;12.10;5.17;;;;;;;-141.97;48.18;47617.09;5013252;28;20230;-81
2023/04/16 06:22:17;;;;;;;9.17;4.50;;;;;;;-141.97;47.84;47784.34;5013131;28;20175;-81
2023/04/16 06:24:42;;;;;;;9.27;4.93;;;;;;;-141.97;49.02;47574.81;5012977;28;20658;-80
2023/04/16 06:27:08;;;;;;;10.60;4.50;;;;;;;-141.97;48.58;47557.53;5018978;28;20190;-81
2023/04/16 06:29:34;;;;;;;11.20;4.93;;;;;;;-141.97;48.95;47617.09;5047721;28;20234;-80
2023/04/16 06:32:01;;;;;;;7.97;3.90;;;;;;;-141.97;49.01;47701.69;5024870;28;20170;-81
2023/04/16 06:34:27;;;;;;;9.27;4.30;;;;;;;-141.97;48.35;47605.56;5004578;28;20198;-80
2023/04/16 06:36:52;;;;;;;10.37;4.77;;;;;;;-141.97;49.33;47749.72;5031277;28;20178;-80
2023/04/16 06:39:20;;;;;;;6.37;3.83;;;;;;;-141.97;49.55;47484.47;5032164;28;20522;-80
2023/04/16 06:41:46;;;;;;;8.63;4.40;;;;;;;-141.97;49.36;47569.06;5031948;28;20166;-82
2023/04/16 06:44:12;;;;;;;9.27;4.60;;;;;;;-141.97;49.52;47559.44;5029584;28;20288;-82
2023/04/16 06:46:38;;;;;;;9.90;5.20;;;;;;;-141.97;49.08;47630.56;5028597;28;20236;-83
2023/04/16 06:49:03;;;;;;;8.80;4.37;;;;;;;-141.97;49.13;47619.03;5031903;28;20178;-81
2023/04/16 06:51:29;;;;;;;10.57;4.80;;;;;;;-141.97;49.42;47561.38;5029280;28;20182;-81
2023/04/16 06:53:54;;;;;;;8.80;4.60;;;;;;;-141.97;49.24;47559.44;5027951;28;20708;-82
2023/04/16 06:56:20;;;;;;;8.47;4.70;;;;;;;-141.97;49.39;47524.84;5028684;28;20170;-82
2023/04/16 06:58:45;;;;;;;10.33;4.67;;;;;;;-141.97;50.03;47611.34;5029449;28;20691;-82
2023/04/16 07:01:11;;;;;;;10.63;4.90;;;;;;;-141.97;48.88;47611.34;5020147;28;20261;-83
2023/04/16 07:03:37;;;;;;;10.57;5.33;;;;;;;-141.97;49.72;47549.84;5030110;28;20258;-82
2023/04/16 07:06:02;;;;;;;9.27;4.87;;;;;;;-141.97;48.22;47584.44;5026389;28;20209;-81
2023/04/16 07:08:27;;;;;;;8.43;4.40;;;;;;;-141.97;47.90;47496.00;5030973;28;20179;-83
2023/04/16 07:10:53;;;;;;;16.30;8.37;;;;;;;-141.97;50.00;47659.38;5032137;28;20220;-84
2023/04/16 07:13:20;;;;;;;13.47;6.10;;;;;;;-141.97;50.57;47480.63;5031087;28;20209;-84
2023/04/16 07:15:46;;;;;;;13.57;5.67;;;;;;;-141.97;49.54;47592.13;5028463;28;20623;-84
2023/04/16 07:18:11;;;;;;;12.50;6.90;;;;;;;-141.97;50.79;47524.84;5022187;28;20247;-83
2023/04/16 07:20:36;;;;;;;9.57;5.10;;;;;;;-141.97;49.57;47513.31;5031718;28;20218;-81
2023/04/16 07:23:02;;;;;;;10.20;6.10;;;;;;;-141.97;47.71;47609.41;5048021;28;20629;-81
2023/04/16 07:25:27;;;;;;;14.20;6.10;;;;;;;-141.97;48.34;47451.81;5037936;28;20170;-84
2023/04/16 07:27:53;;;;;;;13.80;6.47;;;;;;;-141.97;48.99;47617.09;5043424;28;20184;-82
2023/04/16 07:30:18;;;;;;;11.50;5.50;;;;;;;-141.97;48.20;47503.69;5032319;28;20178;-81
2023/04/16 07:32:43;;;;;;;12.53;5.80;;;;;;;-141.97;47.46;47630.56;5026061;28;20209;-82
2023/04/16 07:35:09;;;;;;;14.17;5.87;;;;;;;-141.97;47.45;47476.78;5031857;28;20177;-82
2023/04/16 07:37:34;;;;;;;9.63;5.23;;;;;;;-141.97;45.77;47555.59;5031673;28;20224;-82
2023/04/16 07:40:00;;;;;;;8.47;4.40;;;;;;;-141.97;45.43;47411.44;5031446;28;20166;-82
2023/04/16 07:42:26;;;;;;;8.67;5.00;;;;;;;-141.97;45.88;47561.38;5030071;28;20196;-82
2023/04/16 07:44:52;;;;;;;9.33;4.03;;;;;;;-141.97;46.59;47592.13;5030896;28;20567;-82
2023/04/16 07:47:17;;;;;;;10.50;3.93;;;;;;;-141.97;46.29;47695.91;5031669;28;20171;-82
2023/04/16 07:49:43;;;;;;;8.93;4.03;;;;;;;-141.97;45.64;47478.72;5031518;28;20261;-82
2023/04/16 07:52:08;;;;;;;9.00;4.60;;;;;;;-141.97;45.06;47507.53;5030691;28;20170;-82
2023/04/16 07:54:34;;;;;;;7.80;4.10;;;;;;;-141.97;44.08;47524.84;5031671;28;20170;-82
2023/04/16 07:57:00;;;;;;;10.03;4.27;;;;;;;-141.97;43.09;47465.25;5030646;28;20259;-82
2023/04/16 07:59:25;;;;;;;10.70;5.20;;;;;;;-141.97;42.80;47615.19;5030322;28;20169;-82
2023/04/16 08:01:53;;;;;;;10.70;4.93;;;;;;;-141.97;42.97;47680.53;5039457;28;20204;-82
2023/04/16 08:04:23;;;;;;;7.10;3.43;;;;;;;-141.97;42.31;47465.25;5028597;28;20272;-81
2023/04/16 08:06:49;;;;;;;7.67;3.70;;;;;;;-141.97;41.90;47590.19;5033397;28;20170;-82
2023/04/16 08:09:15;;;;;;;7.83;3.83;;;;;;;-141.97;41.82;47565.22;5047566;28;20681;-82
2023/04/16 08:11:41;;;;;;;7.27;4.40;;;;;;;-141.97;42.08;47632.47;5047170;28;20186;-81
2023/04/16 08:14:07;;;;;;;7.90;4.13;;;;;;;-141.97;41.85;47557.53;5047930;28;20220;-81
2023/04/16 08:16:33;;;;;;;8.83;4.47;;;;;;;-141.97;41.76;47574.81;5039269;28;20220;-80
2023/04/16 08:18:59;;;;;;;7.50;4.13;;;;;;;-141.97;41.65;47738.19;5040618;28;20177;-82
2023/04/16 08:21:26;;;;;;;8.27;3.30;;;;;;;-141.97;41.50;47534.44;5051753;28;20174;-82
2023/04/16 08:23:53;;;;;;;6.27;3.30;;;;;;;-141.97;42.75;47611.34;5047132;28;20233;-81
2023/04/16 08:26:21;;;;;;;5.90;3.53;;;;;;;-141.97;42.62;47534.44;5027908;28;20181;-81
2023/04/16 08:28:47;;;;;;;9.07;3.50;;;;;;;-141.97;42.00;47576.75;5031228;28;20193;-81
2023/04/16 08:31:12;;;;;;;8.90;4.70;;;;;;;-141.97;42.51;47484.47;5031888;28;20182;-81
2023/04/16 08:33:39;;;;;;;7.70;4.07;;;;;;;-141.97;42.06;47574.81;5027808;28;20212;-82
2023/04/16 08:36:06;;;;;;;6.53;3.83;;;;;;;-141.97;41.90;47488.31;5031166;28;20196;-82
2023/04/16 08:38:32;;;;;;;9.90;4.60;;;;;;;-141.97;42.54;47459.50;5048373;28;20618;-83
2023/04/16 08:41:04;;;;;;;10.00;4.73;;;;;;;-141.97;42.60;47578.66;5031713;28;20265;-83
2023/04/16 08:43:32;;;;;;;8.07;4.60;;;;;;;-141.97;42.78;47546.00;5031890;28;20224;-82
2023/04/16 08:46:00;;;;;;;15.67;6.60;;;;;;;-141.97;42.66;47570.97;5030945;28;20201;-83
2023/04/16 08:48:31;;;;;;;15.33;6.40;;;;;;;-141.97;42.53;47576.75;5030940;28;20182;-82
2023/04/16 08:50:59;;;;;;;17.47;6.53;;;;;;;-141.97;42.16;47547.91;5032098;28;20186;-83
2023/04/16 08:53:32;;;;;;;11.03;4.97;;;;;;;-141.97;41.38;47555.59;5031093;28;20569;-82
2023/04/16 08:56:02;;;;;;;8.97;4.67;;;;;;;-141.97;42.09;47553.69;5030830;28;20166;-83
2023/04/16 08:58:31;;;;;;;12.40;5.40;;;;;;;-141.97;42.42;47519.06;5030813;28;20188;-81
2023/04/16 09:00:56;;;;;;;14.53;7.03;;;;;;;-141.97;41.41;47745.88;5029133;28;20174;-82
2023/04/16 09:03:22;;;;;;;13.30;6.70;;;;;;;-141.97;40.51;47540.22;5029512;28;20185;-82
2023/04/16 09:05:48;;;;;;;16.63;8.13;;;;;;;-141.97;40.04;47544.06;5030972;28;20608;-81
2023/04/16 09:08:14;;;;;;;9.10;5.17;;;;;;;-141.97;39.82;47620.94;5044253;28;20188;-83
2023/04/16 09:10:39;;;;;;;10.27;5.67;;;;;;;-141.97;39.74;47480.63;5051050;28;20165;-82
2023/04/16 09:13:05;;;;;;;10.90;4.87;;;;;;;-141.97;39.12;47565.22;5040761;28;20202;-83
2023/04/16 09:15:31;;;;;;;10.90;4.87;;;;;;;-141.97;37.97;47559.44;5029732;28;20554;-81
2023/04/16 09:17:56;;;;;;;9.47;4.70;;;;;;;-141.97;38.20;47496.00;5034047;28;20209;-83
2023/04/16 09:20:22;;;;;;;10.20;5.10;;;;;;;-141.97;37.80;47726.66;5034103;28;20722;-82
2023/04/16 09:22:47;;;;;;;9.17;4.10;;;;;;;-141.97;37.86;47638.25;5033306;28;20166;-83
2023/04/16 09:25:14;;;;;;;6.83;4.13;;;;;;;-141.97;37.42;47572.91;5034347;28;20181;-83
2023/04/16 09:27:39;;;;;;;7.57;4.20;;;;;;;-141.97;37.25;47572.91;5033543;28;20162;-83
2023/04/16 09:30:25;;;;;;;7.83;4.30;;;;;;;-141.97;37.11;47561.38;5033761;28;20606;-83
2023/04/16 09:32:52;;;;;;;7.70;4.40;;;;;;;-141.97;37.09;47572.91;5014491;28;20198;-82
2023/04/16 09:35:18;;;;;;;8.57;4.70;;;;;;;-141.97;37.08;47611.34;5014885;28;20195;-82
2023/04/16 09:37:55;;;;;;;11.20;4.50;;;;;;;-141.97;36.84;47442.19;5035206;28;20257;-82
2023/04/16 09:40:25;;;;;;;7.23;4.23;;;;;;;-141.97;35.72;47409.53;5034177;28;20170;-83
2023/04/16 09:42:52;;;;;;;7.23;4.03;;;;;;;-141.97;36.88;47419.13;5033893;28;20244;-82
2023/04/16 09:45:17;;;;;;;8.73;4.17;;;;;;;-141.97;37.59;47492.16;5033764;28;20224;-81
2023/04/16 09:47:44;;;;;;;7.70;4.10;;;;;;;-141.97;37.37;47467.19;5034517;28;20174;-83
2023/04/16 09:50:14;;;;;;;5.43;3.60;;;;;;;-141.97;36.18;47501.78;5027782;28;20179;-82
2023/04/16 09:52:42;;;;;;;8.90;3.80;;;;;;;-141.97;36.13;47465.25;5036392;28;20677;-83
2023/04/16 09:55:08;;;;;;;8.27;3.20;;;;;;;-141.97;36.81;47398.00;5051171;28;20658;-82
2023/04/16 09:57:36;;;;;;;7.17;3.77;;;;;;;-141.97;36.97;47526.75;5047886;28;20173;-83
2023/04/16 10:00:08;;;;;;;6.20;3.90;;;;;;;-141.97;37.36;47572.91;5049489;28;20204;-83
2023/04/16 10:02:33;;;;;;;5.93;3.60;;;;;;;-141.97;37.58;47546.00;5031401;28;20162;-84
2023/04/16 10:05:02;;;;;;;8.23;3.83;;;;;;;-141.97;36.71;47736.28;5032209;28;20256;-85
2023/04/16 10:07:32;;;;;;;6.83;3.80;;;;;;;-141.97;36.82;47492.16;5016174;28;20229;-84
2023/04/16 10:09:57;;;;;;;8.20;4.00;;;;;;;-141.97;36.36;47688.22;5023367;28;20922;-84
2023/04/16 10:12:23;;;;;;;8.40;3.77;;;;;;;-141.97;37.09;47534.44;5032555;28;20256;-84
2023/04/16 10:14:48;;;;;;;7.87;3.73;;;;;;;-141.97;36.41;47649.78;5032698;28;20646;-84
2023/04/16 10:17:15;;;;;;;5.70;3.50;;;;;;;-141.97;36.68;47544.06;5023876;28;20268;-83
2023/04/16 10:19:41;;;;;;;6.37;3.67;;;;;;;-141.97;36.21;47546.00;5027909;28;20666;-83
2023/04/16 10:22:06;;;;;;;8.03;3.70;;;;;;;-141.97;36.34;47699.75;5011880;28;20194;-83
2023/04/16 10:24:56;;;;;;;7.77;3.90;;;;;;;-141.97;36.45;47507.53;5013518;28;20227;-83
2023/04/16 10:27:21;;;;;;;6.77;3.20;;;;;;;-141.97;36.13;47669.00;5014989;28;20175;-82
2023/04/16 10:29:48;;;;;;;6.30;3.40;;;;;;;-141.97;35.98;47501.78;5012137;28;20260;-82
2023/04/16 10:32:15;;;;;;;7.13;3.30;;;;;;;-141.97;35.49;47551.75;5009956;28;20651;-82
2023/04/16 10:35:02;;;;;;;8.10;3.93;;;;;;;-141.97;35.47;47540.22;5002661;28;20565;-82
2023/04/16 10:37:44;;;;;;;8.73;3.60;;;;;;;-141.97;34.95;47526.75;5020880;28;20187;-82
2023/04/16 10:40:23;;;;;;;5.80;3.60;;;;;;;-141.97;35.18;47580.59;5016671;28;20166;-82
2023/04/16 10:43:00;;;;;;;9.20;4.30;;;;;;;-141.97;35.44;47630.56;5031132;28;20616;-81
2023/04/16 10:45:30;;;;;;;6.63;3.60;;;;;;;-141.97;35.85;47640.16;5034103;28;20176;-82
2023/04/16 10:47:56;;;;;;;7.60;3.67;;;;;;;-141.97;36.35;47492.16;5033573;28;20304;-83
2023/04/16 10:50:22;;;;;;;6.40;3.40;;;;;;;-141.97;36.50;47734.34;5030866;28;20175;-82
2023/04/16 10:52:47;;;;;;;6.40;3.33;;;;;;;-141.97;36.46;47530.59;5029264;28;20212;-84
2023/04/16 10:55:16;;;;;;;8.87;3.73;;;;;;;-141.97;36.67;47519.06;5014999;28;20177;-84
2023/04/16 10:57:42;;;;;;;6.07;3.37;;;;;;;-141.97;36.35;47617.09;5013784;28;20629;-84
2023/04/16 11:00:27;;;;;;;6.17;3.30;;;;;;;-141.97;36.99;47547.91;5012198;28;20171;-83
2023/04/16 11:02:53;;;;;;;5.93;3.20;;;;;;;-141.97;37.04;47692.06;5011432;28;20644;-83
2023/04/16 11:05:23;;;;;;;6.40;3.53;;;;;;;-141.97;38.13;47536.38;5021140;28;20178;-83
2023/04/16 11:07:49;;;;;;;6.97;3.80;;;;;;;-141.97;37.52;47476.78;5016786;28;20190;-83